sensor_id;sensor_type;location;lat;lon;timestamp;P1;durP1;ratioP1;P2;durP2;ratioP2
32872;SDS011;19224;52.462;16.898;2022-10-18T00:02:03;36.85;;;22.62;;
32872;SDS011;19224;52.462;16.898;2022-10-18T00:04:33;37.40;;;21.95;;
32872;SDS011;19224;52.462;16.898;2022-10-18T00:07:05;38.75;;;22.85;;
32872;SDS011;19224;52.462;16.898;2022-10-18T00:09:35;35.52;;;22.10;;
32872;SDS011;19224;52.462;16.898;2022-10-18T00:12:06;36.25;;;22.13;;
32872;SDS011;19224;52.462;16.898;2022-10-18T00:14:37;35.03;;;22.30;;
32872;SDS011;19224;52.462;16.898;2022-10-18T00:17:07;32.93;;;22.10;;
32872;SDS011;19224;52.462;16.898;2022-10-18T00:19:37;33.18;;;22.42;;
32872;SDS011;19224;52.462;16.898;2022-10-18T00:22:07;35.25;;;22.40;;
32872;SDS011;19224;52.462;16.898;2022-10-18T00:24:40;31.55;;;22.30;;
32872;SDS011;19224;52.462;16.898;2022-10-18T00:27:12;36.28;;;22.02;;
32872;SDS011;19224;52.462;16.898;2022-10-18T00:29:42;33.55;;;21.95;;
32872;SDS011;19224;52.462;16.898;2022-10-18T00:32:13;33.20;;;21.42;;
32872;SDS011;19224;52.462;16.898;2022-10-18T00:34:43;33.60;;;22.07;;
32872;SDS011;19224;52.462;16.898;2022-10-18T00:37:17;34.48;;;21.75;;
32872;SDS011;19224;52.462;16.898;2022-10-18T00:39:47;34.53;;;23.10;;
32872;SDS011;19224;52.462;16.898;2022-10-18T00:42:18;36.50;;;22.00;;
32872;SDS011;19224;52.462;16.898;2022-10-18T00:47:34;36.42;;;22.37;;
32872;SDS011;19224;52.462;16.898;2022-10-18T00:50:05;36.33;;;21.48;;
32872;SDS011;19224;52.462;16.898;2022-10-18T00:52:38;37.08;;;23.47;;
32872;SDS011;19224;52.462;16.898;2022-10-18T00:55:11;36.58;;;23.00;;
32872;SDS011;19224;52.462;16.898;2022-10-18T00:57:42;34.85;;;23.77;;
32872;SDS011;19224;52.462;16.898;2022-10-18T01:00:13;33.53;;;22.55;;
32872;SDS011;19224;52.462;16.898;2022-10-18T01:02:46;36.90;;;22.85;;
32872;SDS011;19224;52.462;16.898;2022-10-18T01:05:18;37.15;;;22.55;;
32872;SDS011;19224;52.462;16.898;2022-10-18T01:07:54;36.75;;;22.45;;
32872;SDS011;19224;52.462;16.898;2022-10-18T01:11:15;34.25;;;22.75;;
32872;SDS011;19224;52.462;16.898;2022-10-18T01:17:18;35.70;;;22.82;;
32872;SDS011;19224;52.462;16.898;2022-10-18T01:20:12;37.25;;;22.30;;
32872;SDS011;19224;52.462;16.898;2022-10-18T01:22:49;32.90;;;21.70;;
32872;SDS011;19224;52.462;16.898;2022-10-18T01:31:29;35.43;;;21.68;;
32872;SDS011;19224;52.462;16.898;2022-10-18T01:34:07;30.48;;;21.97;;
32872;SDS011;19224;52.462;16.898;2022-10-18T01:36:50;34.30;;;22.05;;
32872;SDS011;19224;52.462;16.898;2022-10-18T01:39:25;37.83;;;22.27;;
32872;SDS011;19224;52.462;16.898;2022-10-18T01:42:00;33.78;;;22.50;;
32872;SDS011;19224;52.462;16.898;2022-10-18T01:44:33;35.85;;;23.05;;
32872;SDS011;19224;52.462;16.898;2022-10-18T01:47:08;35.25;;;22.85;;
32872;SDS011;19224;52.462;16.898;2022-10-18T01:49:41;32.35;;;21.80;;
32872;SDS011;19224;52.462;16.898;2022-10-18T01:52:12;37.58;;;22.80;;
32872;SDS011;19224;52.462;16.898;2022-10-18T01:54:45;36.98;;;21.93;;
32872;SDS011;19224;52.462;16.898;2022-10-18T02:00:11;38.73;;;23.83;;
32872;SDS011;19224;52.462;16.898;2022-10-18T02:02:54;42.38;;;27.35;;
32872;SDS011;19224;52.462;16.898;2022-10-18T02:05:49;58.13;;;36.98;;
32872;SDS011;19224;52.462;16.898;2022-10-18T02:08:34;49.40;;;32.85;;
32872;SDS011;19224;52.462;16.898;2022-10-18T02:11:16;36.90;;;24.95;;
32872;SDS011;19224;52.462;16.898;2022-10-18T02:13:52;36.98;;;25.25;;
32872;SDS011;19224;52.462;16.898;2022-10-18T02:16:29;39.45;;;26.10;;
32872;SDS011;19224;52.462;16.898;2022-10-18T02:19:23;36.60;;;24.30;;
32872;SDS011;19224;52.462;16.898;2022-10-18T02:22:07;35.55;;;23.85;;
32872;SDS011;19224;52.462;16.898;2022-10-18T02:24:47;39.18;;;24.18;;
32872;SDS011;19224;52.462;16.898;2022-10-18T02:27:20;35.48;;;23.73;;
32872;SDS011;19224;52.462;16.898;2022-10-18T02:29:50;37.53;;;23.40;;
32872;SDS011;19224;52.462;16.898;2022-10-18T02:35:05;34.55;;;23.05;;
32872;SDS011;19224;52.462;16.898;2022-10-18T02:37:47;36.42;;;23.67;;
32872;SDS011;19224;52.462;16.898;2022-10-18T02:40:20;40.65;;;23.47;;
32872;SDS011;19224;52.462;16.898;2022-10-18T02:42:55;37.17;;;22.82;;
32872;SDS011;19224;52.462;16.898;2022-10-18T02:45:26;35.85;;;23.62;;
32872;SDS011;19224;52.462;16.898;2022-10-18T02:47:56;36.50;;;23.50;;
32872;SDS011;19224;52.462;16.898;2022-10-18T02:50:28;38.83;;;22.50;;
32872;SDS011;19224;52.462;16.898;2022-10-18T02:52:59;40.38;;;22.45;;
32872;SDS011;19224;52.462;16.898;2022-10-18T02:55:31;36.28;;;23.87;;
32872;SDS011;19224;52.462;16.898;2022-10-18T02:58:01;36.38;;;22.73;;
32872;SDS011;19224;52.462;16.898;2022-10-18T03:00:33;35.43;;;22.15;;
32872;SDS011;19224;52.462;16.898;2022-10-18T03:03:03;35.08;;;21.75;;
32872;SDS011;19224;52.462;16.898;2022-10-18T03:05:35;38.75;;;22.82;;
32872;SDS011;19224;52.462;16.898;2022-10-18T03:08:08;39.33;;;23.27;;
32872;SDS011;19224;52.462;16.898;2022-10-18T03:10:38;37.20;;;22.40;;
32872;SDS011;19224;52.462;16.898;2022-10-18T03:13:08;38.78;;;22.30;;
32872;SDS011;19224;52.462;16.898;2022-10-18T03:15:38;39.23;;;22.87;;
32872;SDS011;19224;52.462;16.898;2022-10-18T03:18:08;45.58;;;23.45;;
32872;SDS011;19224;52.462;16.898;2022-10-18T03:20:38;41.40;;;22.58;;
32872;SDS011;19224;52.462;16.898;2022-10-18T03:23:09;42.75;;;23.35;;
32872;SDS011;19224;52.462;16.898;2022-10-18T03:25:40;34.83;;;21.95;;
32872;SDS011;19224;52.462;16.898;2022-10-18T03:28:13;40.23;;;23.60;;
32872;SDS011;19224;52.462;16.898;2022-10-18T03:30:44;40.23;;;23.45;;
32872;SDS011;19224;52.462;16.898;2022-10-18T03:33:16;36.08;;;24.10;;
32872;SDS011;19224;52.462;16.898;2022-10-18T03:35:48;32.95;;;22.93;;
32872;SDS011;19224;52.462;16.898;2022-10-18T03:38:20;40.55;;;23.50;;
32872;SDS011;19224;52.462;16.898;2022-10-18T03:40:50;37.80;;;23.70;;
32872;SDS011;19224;52.462;16.898;2022-10-18T03:43:26;40.05;;;24.25;;
32872;SDS011;19224;52.462;16.898;2022-10-18T03:45:56;51.50;;;24.37;;
32872;SDS011;19224;52.462;16.898;2022-10-18T03:48:28;42.35;;;24.47;;
32872;SDS011;19224;52.462;16.898;2022-10-18T03:50:58;51.00;;;24.77;;
32872;SDS011;19224;52.462;16.898;2022-10-18T03:53:28;46.73;;;24.65;;
32872;SDS011;19224;52.462;16.898;2022-10-18T03:55:59;60.65;;;24.43;;
32872;SDS011;19224;52.462;16.898;2022-10-18T03:58:37;56.33;;;25.40;;
32872;SDS011;19224;52.462;16.898;2022-10-18T04:01:05;53.38;;;24.87;;
32872;SDS011;19224;52.462;16.898;2022-10-18T04:03:37;53.42;;;24.92;;
32872;SDS011;19224;52.462;16.898;2022-10-18T04:06:09;45.00;;;23.07;;
32872;SDS011;19224;52.462;16.898;2022-10-18T04:08:43;42.13;;;23.67;;
32872;SDS011;19224;52.462;16.898;2022-10-18T04:11:13;45.17;;;22.73;;
32872;SDS011;19224;52.462;16.898;2022-10-18T04:13:48;50.05;;;23.70;;
32872;SDS011;19224;52.462;16.898;2022-10-18T04:16:18;46.08;;;24.10;;
32872;SDS011;19224;52.462;16.898;2022-10-18T04:18:54;42.50;;;23.45;;
32872;SDS011;19224;52.462;16.898;2022-10-18T04:21:24;39.55;;;23.02;;
32872;SDS011;19224;52.462;16.898;2022-10-18T04:23:55;41.42;;;23.35;;
32872;SDS011;19224;52.462;16.898;2022-10-18T04:26:25;42.80;;;22.75;;
32872;SDS011;19224;52.462;16.898;2022-10-18T04:28:57;37.03;;;21.90;;
32872;SDS011;19224;52.462;16.898;2022-10-18T04:31:31;45.30;;;23.05;;
32872;SDS011;19224;52.462;16.898;2022-10-18T04:34:03;33.65;;;21.77;;
32872;SDS011;19224;52.462;16.898;2022-10-18T04:36:33;38.13;;;22.90;;
32872;SDS011;19224;52.462;16.898;2022-10-18T04:39:04;36.53;;;23.12;;
32872;SDS011;19224;52.462;16.898;2022-10-18T04:41:36;39.73;;;23.35;;
32872;SDS011;19224;52.462;16.898;2022-10-18T04:44:06;34.43;;;22.13;;
32872;SDS011;19224;52.462;16.898;2022-10-18T04:46:36;37.48;;;21.62;;
32872;SDS011;19224;52.462;16.898;2022-10-18T04:49:06;33.85;;;22.30;;
32872;SDS011;19224;52.462;16.898;2022-10-18T04:51:36;37.78;;;22.60;;
32872;SDS011;19224;52.462;16.898;2022-10-18T04:54:06;36.60;;;21.85;;
32872;SDS011;19224;52.462;16.898;2022-10-18T04:56:36;30.57;;;20.65;;
32872;SDS011;19224;52.462;16.898;2022-10-18T04:59:06;32.90;;;21.85;;
32872;SDS011;19224;52.462;16.898;2022-10-18T05:01:36;34.43;;;21.73;;
32872;SDS011;19224;52.462;16.898;2022-10-18T05:04:09;38.45;;;21.25;;
32872;SDS011;19224;52.462;16.898;2022-10-18T05:06:41;32.23;;;21.10;;
32872;SDS011;19224;52.462;16.898;2022-10-18T05:09:11;34.25;;;21.57;;
32872;SDS011;19224;52.462;16.898;2022-10-18T05:11:47;35.35;;;21.45;;
32872;SDS011;19224;52.462;16.898;2022-10-18T05:14:17;40.48;;;22.07;;
32872;SDS011;19224;52.462;16.898;2022-10-18T05:16:52;32.30;;;21.70;;
32872;SDS011;19224;52.462;16.898;2022-10-18T05:19:23;33.48;;;20.82;;
32872;SDS011;19224;52.462;16.898;2022-10-18T05:21:59;30.80;;;22.25;;
32872;SDS011;19224;52.462;16.898;2022-10-18T05:24:29;33.70;;;22.40;;
32872;SDS011;19224;52.462;16.898;2022-10-18T05:26:59;29.40;;;20.88;;
32872;SDS011;19224;52.462;16.898;2022-10-18T05:29:30;37.48;;;22.07;;
32872;SDS011;19224;52.462;16.898;2022-10-18T05:32:00;35.38;;;22.60;;
32872;SDS011;19224;52.462;16.898;2022-10-18T05:34:30;39.50;;;22.22;;
32872;SDS011;19224;52.462;16.898;2022-10-18T05:37:00;37.20;;;22.02;;
32872;SDS011;19224;52.462;16.898;2022-10-18T05:39:31;31.75;;;22.37;;
32872;SDS011;19224;52.462;16.898;2022-10-18T05:42:04;45.30;;;23.32;;
32872;SDS011;19224;52.462;16.898;2022-10-18T05:44:39;45.52;;;23.65;;
32872;SDS011;19224;52.462;16.898;2022-10-18T05:47:09;58.50;;;24.50;;
32872;SDS011;19224;52.462;16.898;2022-10-18T05:49:40;49.80;;;25.25;;
32872;SDS011;19224;52.462;16.898;2022-10-18T05:52:10;41.77;;;21.97;;
32872;SDS011;19224;52.462;16.898;2022-10-18T05:54:40;38.55;;;22.25;;
32872;SDS011;19224;52.462;16.898;2022-10-18T05:57:15;39.65;;;21.55;;
32872;SDS011;19224;52.462;16.898;2022-10-18T05:59:48;35.45;;;22.05;;
32872;SDS011;19224;52.462;16.898;2022-10-18T06:02:18;32.80;;;21.82;;
32872;SDS011;19224;52.462;16.898;2022-10-18T06:04:48;35.55;;;21.65;;
32872;SDS011;19224;52.462;16.898;2022-10-18T06:07:18;33.38;;;21.65;;
32872;SDS011;19224;52.462;16.898;2022-10-18T06:09:48;32.08;;;21.90;;
32872;SDS011;19224;52.462;16.898;2022-10-18T06:12:18;30.97;;;21.50;;
32872;SDS011;19224;52.462;16.898;2022-10-18T06:14:53;37.35;;;23.20;;
32872;SDS011;19224;52.462;16.898;2022-10-18T06:17:30;34.90;;;22.87;;
32872;SDS011;19224;52.462;16.898;2022-10-18T06:20:02;34.05;;;21.57;;
32872;SDS011;19224;52.462;16.898;2022-10-18T06:22:35;32.40;;;21.73;;
32872;SDS011;19224;52.462;16.898;2022-10-18T06:25:06;38.65;;;22.15;;
32872;SDS011;19224;52.462;16.898;2022-10-18T06:27:38;38.83;;;22.87;;
32872;SDS011;19224;52.462;16.898;2022-10-18T06:30:10;32.55;;;21.25;;
32872;SDS011;19224;52.462;16.898;2022-10-18T06:32:42;32.70;;;21.75;;
32872;SDS011;19224;52.462;16.898;2022-10-18T06:35:12;35.48;;;21.85;;
32872;SDS011;19224;52.462;16.898;2022-10-18T06:37:42;32.20;;;20.50;;
32872;SDS011;19224;52.462;16.898;2022-10-18T06:40:12;28.92;;;19.62;;
32872;SDS011;19224;52.462;16.898;2022-10-18T06:42:42;32.75;;;21.70;;
32872;SDS011;19224;52.462;16.898;2022-10-18T06:45:15;33.63;;;21.35;;
32872;SDS011;19224;52.462;16.898;2022-10-18T06:47:45;30.12;;;20.50;;
32872;SDS011;19224;52.462;16.898;2022-10-18T06:50:15;29.35;;;20.57;;
32872;SDS011;19224;52.462;16.898;2022-10-18T06:52:46;30.65;;;21.25;;
32872;SDS011;19224;52.462;16.898;2022-10-18T06:55:22;33.65;;;20.97;;
32872;SDS011;19224;52.462;16.898;2022-10-18T06:57:52;31.57;;;21.20;;
32872;SDS011;19224;52.462;16.898;2022-10-18T07:00:22;30.62;;;20.37;;
32872;SDS011;19224;52.462;16.898;2022-10-18T07:02:53;37.67;;;21.07;;
32872;SDS011;19224;52.462;16.898;2022-10-18T07:05:30;29.77;;;19.90;;
32872;SDS011;19224;52.462;16.898;2022-10-18T07:08:00;30.95;;;20.20;;
32872;SDS011;19224;52.462;16.898;2022-10-18T07:10:31;29.92;;;20.48;;
32872;SDS011;19224;52.462;16.898;2022-10-18T07:13:01;29.30;;;19.65;;
32872;SDS011;19224;52.462;16.898;2022-10-18T07:15:32;31.73;;;21.00;;
32872;SDS011;19224;52.462;16.898;2022-10-18T07:18:05;32.30;;;21.70;;
32872;SDS011;19224;52.462;16.898;2022-10-18T07:20:35;31.27;;;21.62;;
32872;SDS011;19224;52.462;16.898;2022-10-18T07:23:06;36.68;;;21.20;;
32872;SDS011;19224;52.462;16.898;2022-10-18T07:25:39;33.83;;;21.55;;
32872;SDS011;19224;52.462;16.898;2022-10-18T07:28:16;34.65;;;21.55;;
32872;SDS011;19224;52.462;16.898;2022-10-18T07:30:41;33.40;;;21.65;;
32872;SDS011;19224;52.462;16.898;2022-10-18T07:33:13;31.35;;;20.50;;
32872;SDS011;19224;52.462;16.898;2022-10-18T07:35:44;35.40;;;20.95;;
32872;SDS011;19224;52.462;16.898;2022-10-18T07:38:17;28.45;;;19.95;;
32872;SDS011;19224;52.462;16.898;2022-10-18T07:40:55;29.63;;;18.60;;
32872;SDS011;19224;52.462;16.898;2022-10-18T07:43:41;29.45;;;20.27;;
32872;SDS011;19224;52.462;16.898;2022-10-18T07:46:03;36.63;;;20.97;;
32872;SDS011;19224;52.462;16.898;2022-10-18T07:48:34;32.53;;;19.85;;
32872;SDS011;19224;52.462;16.898;2022-10-18T07:51:04;30.35;;;19.37;;
32872;SDS011;19224;52.462;16.898;2022-10-18T07:53:35;28.50;;;17.77;;
32872;SDS011;19224;52.462;16.898;2022-10-18T07:56:14;28.10;;;18.77;;
32872;SDS011;19224;52.462;16.898;2022-10-18T07:58:45;26.52;;;17.82;;
32872;SDS011;19224;52.462;16.898;2022-10-18T08:01:19;27.50;;;18.25;;
32872;SDS011;19224;52.462;16.898;2022-10-18T08:03:52;25.92;;;18.77;;
32872;SDS011;19224;52.462;16.898;2022-10-18T08:06:22;25.00;;;16.50;;
32872;SDS011;19224;52.462;16.898;2022-10-18T08:08:52;28.80;;;17.85;;
32872;SDS011;19224;52.462;16.898;2022-10-18T08:11:23;24.98;;;16.23;;
32872;SDS011;19224;52.462;16.898;2022-10-18T08:13:55;24.52;;;15.18;;
32872;SDS011;19224;52.462;16.898;2022-10-18T08:16:26;26.52;;;16.52;;
32872;SDS011;19224;52.462;16.898;2022-10-18T08:19:03;22.37;;;16.02;;
32872;SDS011;19224;52.462;16.898;2022-10-18T08:21:31;20.97;;;14.40;;
32872;SDS011;19224;52.462;16.898;2022-10-18T08:24:09;21.80;;;14.03;;
32872;SDS011;19224;52.462;16.898;2022-10-18T08:26:34;17.20;;;13.62;;
32872;SDS011;19224;52.462;16.898;2022-10-18T08:29:04;21.90;;;14.47;;
32872;SDS011;19224;52.462;16.898;2022-10-18T08:31:34;23.10;;;14.20;;
32872;SDS011;19224;52.462;16.898;2022-10-18T08:34:09;21.60;;;13.05;;
32872;SDS011;19224;52.462;16.898;2022-10-18T08:36:39;20.08;;;12.88;;
32872;SDS011;19224;52.462;16.898;2022-10-18T08:39:09;18.23;;;12.58;;
32872;SDS011;19224;52.462;16.898;2022-10-18T08:41:42;24.05;;;13.53;;
32872;SDS011;19224;52.462;16.898;2022-10-18T08:47:10;22.50;;;12.90;;
32872;SDS011;19224;52.462;16.898;2022-10-18T08:49:56;18.25;;;13.05;;
32872;SDS011;19224;52.462;16.898;2022-10-18T08:55:35;19.77;;;12.47;;
32872;SDS011;19224;52.462;16.898;2022-10-18T08:58:21;19.37;;;13.13;;
32872;SDS011;19224;52.462;16.898;2022-10-18T09:01:01;16.20;;;12.63;;
32872;SDS011;19224;52.462;16.898;2022-10-18T09:10:20;18.40;;;13.13;;
32872;SDS011;19224;52.462;16.898;2022-10-18T09:16:02;22.32;;;13.78;;
32872;SDS011;19224;52.462;16.898;2022-10-18T09:18:37;19.62;;;13.40;;
32872;SDS011;19224;52.462;16.898;2022-10-18T09:24:25;21.20;;;13.98;;
32872;SDS011;19224;52.462;16.898;2022-10-18T09:27:19;19.27;;;12.93;;
32872;SDS011;19224;52.462;16.898;2022-10-18T09:35:37;21.17;;;13.70;;
32872;SDS011;19224;52.462;16.898;2022-10-18T09:38:20;20.48;;;13.83;;
32872;SDS011;19224;52.462;16.898;2022-10-18T09:40:57;22.10;;;13.90;;
32872;SDS011;19224;52.462;16.898;2022-10-18T09:43:47;25.10;;;13.98;;
32872;SDS011;19224;52.462;16.898;2022-10-18T09:46:30;20.27;;;14.35;;
32872;SDS011;19224;52.462;16.898;2022-10-18T09:49:10;21.87;;;14.38;;
32872;SDS011;19224;52.462;16.898;2022-10-18T09:51:44;22.02;;;14.40;;
32872;SDS011;19224;52.462;16.898;2022-10-18T09:54:28;21.62;;;14.15;;
32872;SDS011;19224;52.462;16.898;2022-10-18T09:57:09;25.17;;;14.18;;
32872;SDS011;19224;52.462;16.898;2022-10-18T09:59:53;21.52;;;14.93;;
32872;SDS011;19224;52.462;16.898;2022-10-18T10:02:27;20.30;;;14.43;;
32872;SDS011;19224;52.462;16.898;2022-10-18T10:04:57;22.42;;;15.05;;
32872;SDS011;19224;52.462;16.898;2022-10-18T10:07:32;18.73;;;14.28;;
32872;SDS011;19224;52.462;16.898;2022-10-18T10:10:18;24.47;;;15.20;;
32872;SDS011;19224;52.462;16.898;2022-10-18T10:13:13;23.40;;;15.72;;
32872;SDS011;19224;52.462;16.898;2022-10-18T10:15:56;23.07;;;15.90;;
32872;SDS011;19224;52.462;16.898;2022-10-18T10:18:31;22.48;;;15.15;;
32872;SDS011;19224;52.462;16.898;2022-10-18T10:21:12;22.70;;;16.82;;
32872;SDS011;19224;52.462;16.898;2022-10-18T10:23:50;26.12;;;16.20;;
32872;SDS011;19224;52.462;16.898;2022-10-18T10:26:31;23.67;;;16.95;;
32872;SDS011;19224;52.462;16.898;2022-10-18T10:29:35;23.42;;;16.10;;
32872;SDS011;19224;52.462;16.898;2022-10-18T10:32:25;21.30;;;15.30;;
32872;SDS011;19224;52.462;16.898;2022-10-18T10:34:59;23.55;;;15.25;;
32872;SDS011;19224;52.462;16.898;2022-10-18T10:37:30;17.45;;;13.20;;
32872;SDS011;19224;52.462;16.898;2022-10-18T10:40:06;20.60;;;14.20;;
32872;SDS011;19224;52.462;16.898;2022-10-18T10:42:52;22.75;;;14.43;;
32872;SDS011;19224;52.462;16.898;2022-10-18T10:45:36;22.40;;;13.85;;
32872;SDS011;19224;52.462;16.898;2022-10-18T10:48:12;19.90;;;14.30;;
32872;SDS011;19224;52.462;16.898;2022-10-18T10:50:48;25.10;;;14.87;;
32872;SDS011;19224;52.462;16.898;2022-10-18T10:53:25;18.00;;;13.22;;
32872;SDS011;19224;52.462;16.898;2022-10-18T10:56:21;16.75;;;13.20;;
32872;SDS011;19224;52.462;16.898;2022-10-18T10:59:00;20.77;;;13.00;;
32872;SDS011;19224;52.462;16.898;2022-10-18T11:01:37;17.23;;;12.65;;
32872;SDS011;19224;52.462;16.898;2022-10-18T11:04:21;15.48;;;11.28;;
32872;SDS011;19224;52.462;16.898;2022-10-18T11:07:02;14.83;;;11.40;;
32872;SDS011;19224;52.462;16.898;2022-10-18T11:15:18;13.18;;;10.58;;
32872;SDS011;19224;52.462;16.898;2022-10-18T11:23:38;12.43;;;8.83;;
32872;SDS011;19224;52.462;16.898;2022-10-18T11:32:19;12.25;;;8.33;;
32872;SDS011;19224;52.462;16.898;2022-10-18T11:34:59;10.20;;;7.65;;
32872;SDS011;19224;52.462;16.898;2022-10-18T11:38:11;9.40;;;6.87;;
32872;SDS011;19224;52.462;16.898;2022-10-18T11:44:01;9.13;;;6.92;;
32872;SDS011;19224;52.462;16.898;2022-10-18T11:49:48;9.45;;;6.20;;
32872;SDS011;19224;52.462;16.898;2022-10-18T11:52:43;11.48;;;6.03;;
32872;SDS011;19224;52.462;16.898;2022-10-18T11:55:27;8.55;;;6.05;;
32872;SDS011;19224;52.462;16.898;2022-10-18T12:01:06;8.65;;;6.10;;
32872;SDS011;19224;52.462;16.898;2022-10-18T12:06:44;10.08;;;6.25;;
32872;SDS011;19224;52.462;16.898;2022-10-18T12:09:31;5.97;;;4.65;;
32872;SDS011;19224;52.462;16.898;2022-10-18T12:14:52;8.88;;;5.55;;
32872;SDS011;19224;52.462;16.898;2022-10-18T12:17:38;10.90;;;6.37;;
32872;SDS011;19224;52.462;16.898;2022-10-18T12:23:04;11.35;;;5.50;;
32872;SDS011;19224;52.462;16.898;2022-10-18T12:26:02;7.95;;;6.33;;
32872;SDS011;19224;52.462;16.898;2022-10-18T12:37:28;7.83;;;4.55;;
32872;SDS011;19224;52.462;16.898;2022-10-18T12:40:00;8.63;;;3.58;;
32872;SDS011;19224;52.462;16.898;2022-10-18T12:42:40;4.60;;;3.72;;
32872;SDS011;19224;52.462;16.898;2022-10-18T12:48:04;6.10;;;3.67;;
32872;SDS011;19224;52.462;16.898;2022-10-18T12:50:38;6.03;;;4.22;;
32872;SDS011;19224;52.462;16.898;2022-10-18T12:53:23;6.50;;;4.30;;
32872;SDS011;19224;52.462;16.898;2022-10-18T13:18:25;6.25;;;3.77;;
32872;SDS011;19224;52.462;16.898;2022-10-18T13:21:05;7.33;;;4.15;;
32872;SDS011;19224;52.462;16.898;2022-10-18T13:23:42;8.33;;;4.03;;
32872;SDS011;19224;52.462;16.898;2022-10-18T13:30:07;6.60;;;4.75;;
32872;SDS011;19224;52.462;16.898;2022-10-18T13:33:04;9.03;;;5.72;;
32872;SDS011;19224;52.462;16.898;2022-10-18T13:35:56;9.75;;;6.20;;
32872;SDS011;19224;52.462;16.898;2022-10-18T13:41:25;10.10;;;6.58;;
32872;SDS011;19224;52.462;16.898;2022-10-18T13:53:05;9.18;;;6.45;;
32872;SDS011;19224;52.462;16.898;2022-10-18T13:58:55;11.10;;;7.72;;
32872;SDS011;19224;52.462;16.898;2022-10-18T14:05:26;9.70;;;6.72;;
32872;SDS011;19224;52.462;16.898;2022-10-18T14:08:08;13.00;;;7.55;;
32872;SDS011;19224;52.462;16.898;2022-10-18T14:13:54;10.90;;;6.95;;
32872;SDS011;19224;52.462;16.898;2022-10-18T14:16:53;11.28;;;7.28;;
32872;SDS011;19224;52.462;16.898;2022-10-18T14:19:56;17.50;;;7.95;;
32872;SDS011;19224;52.462;16.898;2022-10-18T14:22:37;12.50;;;8.13;;
32872;SDS011;19224;52.462;16.898;2022-10-18T14:25:29;10.95;;;8.15;;
32872;SDS011;19224;52.462;16.898;2022-10-18T14:28:08;13.78;;;8.80;;
32872;SDS011;19224;52.462;16.898;2022-10-18T14:30:52;12.45;;;9.03;;
32872;SDS011;19224;52.462;16.898;2022-10-18T14:33:42;13.95;;;8.88;;
32872;SDS011;19224;52.462;16.898;2022-10-18T14:39:03;17.80;;;11.53;;
32872;SDS011;19224;52.462;16.898;2022-10-18T14:41:36;14.78;;;9.88;;
32872;SDS011;19224;52.462;16.898;2022-10-18T14:44:16;12.45;;;8.58;;
32872;SDS011;19224;52.462;16.898;2022-10-18T14:46:51;14.30;;;9.25;;
32872;SDS011;19224;52.462;16.898;2022-10-18T14:49:24;13.60;;;8.88;;
32872;SDS011;19224;52.462;16.898;2022-10-18T14:51:57;15.18;;;8.95;;
32872;SDS011;19224;52.462;16.898;2022-10-18T14:54:30;12.50;;;8.43;;
32872;SDS011;19224;52.462;16.898;2022-10-18T14:57:05;11.80;;;8.63;;
32872;SDS011;19224;52.462;16.898;2022-10-18T15:00:00;14.53;;;9.33;;
32872;SDS011;19224;52.462;16.898;2022-10-18T15:02:39;11.33;;;8.78;;
32872;SDS011;19224;52.462;16.898;2022-10-18T15:07:58;15.35;;;9.20;;
32872;SDS011;19224;52.462;16.898;2022-10-18T15:10:29;12.95;;;9.00;;
32872;SDS011;19224;52.462;16.898;2022-10-18T15:13:03;13.20;;;9.50;;
32872;SDS011;19224;52.462;16.898;2022-10-18T15:15:33;10.68;;;8.05;;
32872;SDS011;19224;52.462;16.898;2022-10-18T15:18:05;12.33;;;7.75;;
32872;SDS011;19224;52.462;16.898;2022-10-18T15:20:39;10.82;;;7.80;;
32872;SDS011;19224;52.462;16.898;2022-10-18T15:26:08;12.10;;;8.15;;
32872;SDS011;19224;52.462;16.898;2022-10-18T15:28:43;11.73;;;8.93;;
32872;SDS011;19224;52.462;16.898;2022-10-18T15:31:28;12.63;;;8.88;;
32872;SDS011;19224;52.462;16.898;2022-10-18T15:36:46;12.40;;;8.78;;
32872;SDS011;19224;52.462;16.898;2022-10-18T15:39:22;12.13;;;8.15;;
32872;SDS011;19224;52.462;16.898;2022-10-18T15:41:59;11.15;;;7.58;;
32872;SDS011;19224;52.462;16.898;2022-10-18T15:44:31;14.98;;;7.65;;
32872;SDS011;19224;52.462;16.898;2022-10-18T15:47:15;10.95;;;7.25;;
32872;SDS011;19224;52.462;16.898;2022-10-18T15:49:49;10.00;;;6.83;;
32872;SDS011;19224;52.462;16.898;2022-10-18T15:52:33;10.00;;;6.17;;
32872;SDS011;19224;52.462;16.898;2022-10-18T15:58:09;8.23;;;5.78;;
32872;SDS011;19224;52.462;16.898;2022-10-18T16:00:58;7.47;;;6.10;;
32872;SDS011;19224;52.462;16.898;2022-10-18T16:03:32;9.25;;;6.67;;
32872;SDS011;19224;52.462;16.898;2022-10-18T16:06:06;11.63;;;7.37;;
32872;SDS011;19224;52.462;16.898;2022-10-18T16:08:38;10.78;;;6.97;;
32872;SDS011;19224;52.462;16.898;2022-10-18T16:11:19;11.95;;;7.08;;
32872;SDS011;19224;52.462;16.898;2022-10-18T16:13:52;13.15;;;7.22;;
32872;SDS011;19224;52.462;16.898;2022-10-18T16:16:24;8.98;;;7.00;;
32872;SDS011;19224;52.462;16.898;2022-10-18T16:18:56;11.10;;;7.65;;
32872;SDS011;19224;52.462;16.898;2022-10-18T16:21:29;11.12;;;6.90;;
32872;SDS011;19224;52.462;16.898;2022-10-18T16:24:03;11.97;;;7.28;;
32872;SDS011;19224;52.462;16.898;2022-10-18T16:26:34;10.43;;;7.65;;
32872;SDS011;19224;52.462;16.898;2022-10-18T16:29:05;10.82;;;8.00;;
32872;SDS011;19224;52.462;16.898;2022-10-18T16:31:37;11.63;;;8.20;;
32872;SDS011;19224;52.462;16.898;2022-10-18T16:34:13;11.08;;;8.33;;
32872;SDS011;19224;52.462;16.898;2022-10-18T16:36:41;12.23;;;8.30;;
32872;SDS011;19224;52.462;16.898;2022-10-18T16:39:13;8.75;;;7.33;;
32872;SDS011;19224;52.462;16.898;2022-10-18T16:41:46;13.35;;;8.13;;
32872;SDS011;19224;52.462;16.898;2022-10-18T16:44:20;10.32;;;6.72;;
32872;SDS011;19224;52.462;16.898;2022-10-18T16:46:50;10.23;;;6.03;;
32872;SDS011;19224;52.462;16.898;2022-10-18T16:49:21;6.90;;;5.58;;
32872;SDS011;19224;52.462;16.898;2022-10-18T16:51:54;5.72;;;4.67;;
32872;SDS011;19224;52.462;16.898;2022-10-18T16:54:26;8.93;;;4.70;;
32872;SDS011;19224;52.462;16.898;2022-10-18T16:56:56;6.90;;;4.35;;
32872;SDS011;19224;52.462;16.898;2022-10-18T16:59:29;7.12;;;4.75;;
32872;SDS011;19224;52.462;16.898;2022-10-18T17:02:04;4.53;;;3.77;;
32872;SDS011;19224;52.462;16.898;2022-10-18T17:04:41;6.90;;;4.28;;
32872;SDS011;19224;52.462;16.898;2022-10-18T17:07:14;6.25;;;4.40;;
32872;SDS011;19224;52.462;16.898;2022-10-18T17:09:53;9.50;;;4.70;;
32872;SDS011;19224;52.462;16.898;2022-10-18T17:12:23;11.83;;;4.62;;
32872;SDS011;19224;52.462;16.898;2022-10-18T17:14:53;8.38;;;3.85;;
32872;SDS011;19224;52.462;16.898;2022-10-18T17:17:23;6.42;;;4.17;;
32872;SDS011;19224;52.462;16.898;2022-10-18T17:19:54;6.00;;;4.15;;
32872;SDS011;19224;52.462;16.898;2022-10-18T17:22:24;8.45;;;4.12;;
32872;SDS011;19224;52.462;16.898;2022-10-18T17:25:02;9.23;;;4.83;;
32872;SDS011;19224;52.462;16.898;2022-10-18T17:27:34;6.87;;;4.30;;
32872;SDS011;19224;52.462;16.898;2022-10-18T17:30:05;7.65;;;4.20;;
32872;SDS011;19224;52.462;16.898;2022-10-18T17:32:36;5.90;;;4.35;;